Sydney, New South Wales

9:08 PM EST on August 29, 2014 (GMT +1000)
Kingsford Smith International | Change Station
CLOSE
Current Station
Airport
Location: Sydney,
Elevation: 20 ft
Nearby Weather Stations

Elev 20 ft 33.95 °S, 151.17 °E | Updated 8 minutes ago

Partly Cloudy
Partly Cloudy
59 °F
Feels Like 59 °F
N
28
Wind Variable Wind from SSW
Gusts 39 mph

Today
High -- | Low -- °F
--% Chance of Precip.
Yesterday
High -- | Low -- °F
Precip. -- in
6:18 AM 5:34 PM
Waxing Crescent, 13% visible
Pressure 30.24 in
Visibility 6.2 miles
Clouds Few 4000 ft
Dew Point 45 °F
Humidity 59%
Rainfall 0.00 in
Snow Depth Not available.
UV 0 out of 12
Pollen Not available.
Air Quality Not available.
Flu Activity Not available.
SPECI YSSY 291100Z 20024G34KT 9999 FEW040 15/07 Q1024 FM1200 19020KT 9999 -SHRA BKN035

More Conditions Fewer Conditions

Pressure 30.24 in
Visibility 6.2 miles
Clouds Few 4000 ft
Dew Point 45 °F
Humidity 59%
Rainfall 0.00 in
Snow Depth Not available.
UV 0 out of 12
Pollen Not available.
Air Quality Not available.
Flu Activity Not available.
SPECI YSSY 291100Z 20024G34KT 9999 FEW040 15/07 Q1024 FM1200 19020KT 9999 -SHRA BKN035

More Conditions Fewer Conditions

10-Day Weather Forecast

Almanac

Astronomy

Aug. 29, 2014 Rise Set
Actual Time 6:18 AM EST 5:34 PM EST
Civil Twilight 5:53 AM EST 6:00 PM EST
Nautical Twilight 5:23 AM EST 6:29 PM EST
Astronomical Twilight 4:55 AM EST 6:58 PM EST
Moon 7:56 AM EST 8:53 PM EST
Length of Visible Light 12h 07m
Length of Day
11h 16m
Tomorrow will be 1m 58s longer.
Waxing Crescent, 13% of the Moon is Illuminated
Today
Waxing Crescent
Sep 2
First Quarter
Sep 8
Full
Sep 15
Last Quarter
Sep 24
New

Yesterday's Extremes

Country Highs Country Lows

Community

WunderPhotos

Upload Photos

1,748,211 photos uploaded!

Nearby

Snow Depth

Not available.

Earthquake Activity

City Distance Mag. Time & Date
No recent earthquake activity has been reported nearby.
Minimum magnitude displayed is 2.5.

Coastal Water Temperatures

Place Temperature
No Stations Reporting

Nearby Weather Stations